Urb El Cemi, Puerto Rico
Current Conditions -  °F | °C
As of 11:56 AM on Sunday 25 Jan 2015 (Local Time) from TJSJ Reporting Station
Scattered Clouds Scattered Clouds  
Wind Chill: 85°   Ceiling: Unl
Heat Index: 88°   Visibility: 10mi
Dew Point: 68°   Wind: 13mph
Humidity: 57%   Direction: 60°ENE
Pressure: 30.02"   Gusts: NA
Location:  18.4051°N, 66.0126°W
Report Text: TJSJ 251556Z 06011KT 10SM SCT041 SCT075 29/20 A3002 RMK AO2 SLP166 T02940200
Loading
Personal Weather Stations






























Interactive Weather Map New forecast layout! Learn more

10-Day Weather Forecast

Advertisements
Track Severe Weather on mobile